sensor_id;sensor_type;location;lat;lon;timestamp;P1;durP1;ratioP1;P2;durP2;ratioP2
32445;SDS011;18899;50.748;7.102;2023-03-01T00:01:06;19.50;;;9.60;;
32445;SDS011;18899;50.748;7.102;2023-03-01T00:03:34;24.50;;;10.50;;
32445;SDS011;18899;50.748;7.102;2023-03-01T00:06:00;27.52;;;10.23;;
32445;SDS011;18899;50.748;7.102;2023-03-01T00:08:26;25.48;;;10.30;;
32445;SDS011;18899;50.748;7.102;2023-03-01T00:11:10;29.38;;;11.55;;
32445;SDS011;18899;50.748;7.102;2023-03-01T00:13:44;23.02;;;10.82;;
32445;SDS011;18899;50.748;7.102;2023-03-01T00:16:11;25.77;;;10.57;;
32445;SDS011;18899;50.748;7.102;2023-03-01T00:18:40;25.15;;;10.95;;
32445;SDS011;18899;50.748;7.102;2023-03-01T00:21:05;30.25;;;11.88;;
32445;SDS011;18899;50.748;7.102;2023-03-01T00:23:31;24.58;;;9.95;;
32445;SDS011;18899;50.748;7.102;2023-03-01T00:25:59;27.65;;;11.27;;
32445;SDS011;18899;50.748;7.102;2023-03-01T00:28:24;36.25;;;12.20;;
32445;SDS011;18899;50.748;7.102;2023-03-01T00:30:50;37.25;;;11.05;;
32445;SDS011;18899;50.748;7.102;2023-03-01T00:33:16;29.92;;;11.27;;
32445;SDS011;18899;50.748;7.102;2023-03-01T00:35:42;25.70;;;11.00;;
32445;SDS011;18899;50.748;7.102;2023-03-01T00:38:07;24.17;;;10.95;;
32445;SDS011;18899;50.748;7.102;2023-03-01T00:40:34;26.40;;;10.30;;
32445;SDS011;18899;50.748;7.102;2023-03-01T00:43:00;20.70;;;10.45;;
32445;SDS011;18899;50.748;7.102;2023-03-01T00:45:27;22.40;;;11.10;;
32445;SDS011;18899;50.748;7.102;2023-03-01T00:47:53;24.42;;;10.02;;
32445;SDS011;18899;50.748;7.102;2023-03-01T00:50:19;21.02;;;10.60;;
32445;SDS011;18899;50.748;7.102;2023-03-01T00:52:45;24.48;;;11.10;;
32445;SDS011;18899;50.748;7.102;2023-03-01T00:55:11;20.42;;;9.65;;
32445;SDS011;18899;50.748;7.102;2023-03-01T00:57:37;20.13;;;10.73;;
32445;SDS011;18899;50.748;7.102;2023-03-01T01:00:04;22.80;;;9.63;;
32445;SDS011;18899;50.748;7.102;2023-03-01T01:02:31;22.63;;;9.85;;
32445;SDS011;18899;50.748;7.102;2023-03-01T01:04:58;24.20;;;9.98;;
32445;SDS011;18899;50.748;7.102;2023-03-01T01:07:23;20.40;;;9.32;;
32445;SDS011;18899;50.748;7.102;2023-03-01T01:09:49;25.35;;;9.70;;
32445;SDS011;18899;50.748;7.102;2023-03-01T01:12:14;19.67;;;9.32;;
32445;SDS011;18899;50.748;7.102;2023-03-01T01:14:40;19.13;;;9.18;;
32445;SDS011;18899;50.748;7.102;2023-03-01T01:17:05;20.25;;;9.13;;
32445;SDS011;18899;50.748;7.102;2023-03-01T01:19:31;17.70;;;8.93;;
32445;SDS011;18899;50.748;7.102;2023-03-01T01:21:56;20.63;;;8.88;;
32445;SDS011;18899;50.748;7.102;2023-03-01T01:24:22;18.63;;;9.23;;
32445;SDS011;18899;50.748;7.102;2023-03-01T01:26:47;20.90;;;9.50;;
32445;SDS011;18899;50.748;7.102;2023-03-01T01:29:13;18.92;;;9.23;;
32445;SDS011;18899;50.748;7.102;2023-03-01T01:31:39;19.73;;;9.70;;
32445;SDS011;18899;50.748;7.102;2023-03-01T01:34:07;18.63;;;9.43;;
32445;SDS011;18899;50.748;7.102;2023-03-01T01:36:37;21.95;;;9.50;;
32445;SDS011;18899;50.748;7.102;2023-03-01T01:39:03;20.77;;;9.98;;
32445;SDS011;18899;50.748;7.102;2023-03-01T01:41:29;18.80;;;9.00;;
32445;SDS011;18899;50.748;7.102;2023-03-01T01:44:11;22.05;;;9.77;;
32445;SDS011;18899;50.748;7.102;2023-03-01T01:46:37;22.08;;;9.63;;
32445;SDS011;18899;50.748;7.102;2023-03-01T01:49:07;24.90;;;9.85;;
32445;SDS011;18899;50.748;7.102;2023-03-01T01:51:43;15.07;;;8.90;;
32445;SDS011;18899;50.748;7.102;2023-03-01T01:54:16;19.63;;;9.07;;
32445;SDS011;18899;50.748;7.102;2023-03-01T01:56:49;19.35;;;9.98;;
32445;SDS011;18899;50.748;7.102;2023-03-01T01:59:18;19.80;;;9.63;;
32445;SDS011;18899;50.748;7.102;2023-03-01T02:01:49;19.95;;;9.75;;
32445;SDS011;18899;50.748;7.102;2023-03-01T02:04:16;32.88;;;10.98;;
32445;SDS011;18899;50.748;7.102;2023-03-01T02:06:43;19.90;;;9.80;;
32445;SDS011;18899;50.748;7.102;2023-03-01T02:09:15;22.30;;;9.93;;
32445;SDS011;18899;50.748;7.102;2023-03-01T02:11:45;23.40;;;10.30;;
32445;SDS011;18899;50.748;7.102;2023-03-01T02:14:12;23.58;;;10.82;;
32445;SDS011;18899;50.748;7.102;2023-03-01T02:16:40;21.63;;;10.20;;
32445;SDS011;18899;50.748;7.102;2023-03-01T02:19:06;23.55;;;9.45;;
32445;SDS011;18899;50.748;7.102;2023-03-01T02:21:50;19.95;;;10.30;;
32445;SDS011;18899;50.748;7.102;2023-03-01T02:26:54;18.00;;;8.93;;
32445;SDS011;18899;50.748;7.102;2023-03-01T02:29:22;23.17;;;10.43;;
32445;SDS011;18899;50.748;7.102;2023-03-01T02:31:48;21.88;;;9.48;;
32445;SDS011;18899;50.748;7.102;2023-03-01T02:34:17;21.33;;;10.20;;
32445;SDS011;18899;50.748;7.102;2023-03-01T02:36:47;19.98;;;10.23;;
32445;SDS011;18899;50.748;7.102;2023-03-01T02:39:30;25.53;;;11.07;;
32445;SDS011;18899;50.748;7.102;2023-03-01T02:41:58;22.23;;;10.02;;
32445;SDS011;18899;50.748;7.102;2023-03-01T02:44:26;23.90;;;10.73;;
32445;SDS011;18899;50.748;7.102;2023-03-01T02:46:52;24.80;;;10.80;;
32445;SDS011;18899;50.748;7.102;2023-03-01T02:49:25;22.65;;;11.05;;
32445;SDS011;18899;50.748;7.102;2023-03-01T02:54:40;18.88;;;10.25;;
32445;SDS011;18899;50.748;7.102;2023-03-01T02:57:19;31.05;;;11.18;;
32445;SDS011;18899;50.748;7.102;2023-03-01T02:59:46;27.92;;;11.32;;
32445;SDS011;18899;50.748;7.102;2023-03-01T03:02:20;27.95;;;11.25;;
32445;SDS011;18899;50.748;7.102;2023-03-01T03:05:00;22.50;;;11.48;;
32445;SDS011;18899;50.748;7.102;2023-03-01T03:07:35;26.20;;;11.23;;
32445;SDS011;18899;50.748;7.102;2023-03-01T03:10:03;26.02;;;12.07;;
32445;SDS011;18899;50.748;7.102;2023-03-01T03:12:29;22.42;;;11.35;;
32445;SDS011;18899;50.748;7.102;2023-03-01T03:14:55;25.85;;;10.43;;
32445;SDS011;18899;50.748;7.102;2023-03-01T03:17:20;28.73;;;11.75;;
32445;SDS011;18899;50.748;7.102;2023-03-01T03:19:46;26.65;;;11.70;;
32445;SDS011;18899;50.748;7.102;2023-03-01T03:22:12;24.95;;;11.57;;
32445;SDS011;18899;50.748;7.102;2023-03-01T03:24:37;29.02;;;11.70;;
32445;SDS011;18899;50.748;7.102;2023-03-01T03:27:03;22.80;;;11.57;;
32445;SDS011;18899;50.748;7.102;2023-03-01T03:29:29;23.73;;;11.02;;
32445;SDS011;18899;50.748;7.102;2023-03-01T03:31:55;27.50;;;11.80;;
32445;SDS011;18899;50.748;7.102;2023-03-01T03:34:20;25.23;;;11.88;;
32445;SDS011;18899;50.748;7.102;2023-03-01T03:36:46;24.98;;;11.57;;
32445;SDS011;18899;50.748;7.102;2023-03-01T03:39:11;22.08;;;10.80;;
32445;SDS011;18899;50.748;7.102;2023-03-01T03:41:37;24.77;;;11.00;;
32445;SDS011;18899;50.748;7.102;2023-03-01T03:44:02;23.85;;;11.57;;
32445;SDS011;18899;50.748;7.102;2023-03-01T03:46:28;25.48;;;10.63;;
32445;SDS011;18899;50.748;7.102;2023-03-01T03:48:54;23.65;;;11.50;;
32445;SDS011;18899;50.748;7.102;2023-03-01T03:51:19;25.17;;;12.55;;
32445;SDS011;18899;50.748;7.102;2023-03-01T03:53:47;22.40;;;10.93;;
32445;SDS011;18899;50.748;7.102;2023-03-01T03:56:13;30.75;;;11.30;;
32445;SDS011;18899;50.748;7.102;2023-03-01T03:58:39;20.63;;;10.20;;
32445;SDS011;18899;50.748;7.102;2023-03-01T04:01:04;23.38;;;11.23;;
32445;SDS011;18899;50.748;7.102;2023-03-01T04:03:31;24.17;;;11.27;;
32445;SDS011;18899;50.748;7.102;2023-03-01T04:05:58;26.55;;;11.88;;
32445;SDS011;18899;50.748;7.102;2023-03-01T04:08:24;28.35;;;11.98;;
32445;SDS011;18899;50.748;7.102;2023-03-01T04:10:51;31.92;;;12.38;;
32445;SDS011;18899;50.748;7.102;2023-03-01T04:13:19;25.05;;;11.38;;
32445;SDS011;18899;50.748;7.102;2023-03-01T04:15:46;25.00;;;11.05;;
32445;SDS011;18899;50.748;7.102;2023-03-01T04:20:44;26.48;;;10.85;;
32445;SDS011;18899;50.748;7.102;2023-03-01T04:25:54;22.38;;;10.70;;
32445;SDS011;18899;50.748;7.102;2023-03-01T04:28:25;28.67;;;12.25;;
32445;SDS011;18899;50.748;7.102;2023-03-01T04:30:55;21.33;;;11.00;;
32445;SDS011;18899;50.748;7.102;2023-03-01T04:33:22;35.45;;;11.40;;
32445;SDS011;18899;50.748;7.102;2023-03-01T04:35:49;29.00;;;10.80;;
32445;SDS011;18899;50.748;7.102;2023-03-01T04:38:15;20.52;;;9.65;;
32445;SDS011;18899;50.748;7.102;2023-03-01T04:40:41;23.90;;;10.65;;
32445;SDS011;18899;50.748;7.102;2023-03-01T04:43:10;23.85;;;11.43;;
32445;SDS011;18899;50.748;7.102;2023-03-01T04:45:39;24.50;;;10.98;;
32445;SDS011;18899;50.748;7.102;2023-03-01T04:48:04;20.17;;;10.55;;
32445;SDS011;18899;50.748;7.102;2023-03-01T04:50:31;21.98;;;10.18;;
32445;SDS011;18899;50.748;7.102;2023-03-01T04:52:57;23.20;;;11.05;;
32445;SDS011;18899;50.748;7.102;2023-03-01T04:55:26;22.67;;;11.10;;
32445;SDS011;18899;50.748;7.102;2023-03-01T04:57:52;26.40;;;11.70;;
32445;SDS011;18899;50.748;7.102;2023-03-01T05:00:18;20.67;;;10.48;;
32445;SDS011;18899;50.748;7.102;2023-03-01T05:02:48;23.23;;;10.88;;
32445;SDS011;18899;50.748;7.102;2023-03-01T05:05:18;24.20;;;10.68;;
32445;SDS011;18899;50.748;7.102;2023-03-01T05:07:45;25.15;;;11.02;;
32445;SDS011;18899;50.748;7.102;2023-03-01T05:10:10;23.73;;;10.73;;
32445;SDS011;18899;50.748;7.102;2023-03-01T05:12:36;19.85;;;9.95;;
32445;SDS011;18899;50.748;7.102;2023-03-01T05:15:02;23.13;;;10.68;;
32445;SDS011;18899;50.748;7.102;2023-03-01T05:17:31;25.55;;;10.95;;
32445;SDS011;18899;50.748;7.102;2023-03-01T05:19:58;21.77;;;10.32;;
32445;SDS011;18899;50.748;7.102;2023-03-01T05:22:24;24.23;;;10.90;;
32445;SDS011;18899;50.748;7.102;2023-03-01T05:24:50;24.13;;;10.88;;
32445;SDS011;18899;50.748;7.102;2023-03-01T05:27:15;23.75;;;11.35;;
32445;SDS011;18899;50.748;7.102;2023-03-01T05:29:41;24.58;;;10.93;;
32445;SDS011;18899;50.748;7.102;2023-03-01T05:32:06;25.20;;;11.63;;
32445;SDS011;18899;50.748;7.102;2023-03-01T05:34:34;22.90;;;10.93;;
32445;SDS011;18899;50.748;7.102;2023-03-01T05:37:01;26.98;;;11.20;;
32445;SDS011;18899;50.748;7.102;2023-03-01T05:39:27;24.48;;;10.98;;
32445;SDS011;18899;50.748;7.102;2023-03-01T05:41:55;24.83;;;11.85;;
32445;SDS011;18899;50.748;7.102;2023-03-01T05:44:22;29.85;;;12.15;;
32445;SDS011;18899;50.748;7.102;2023-03-01T05:46:48;25.17;;;11.45;;
32445;SDS011;18899;50.748;7.102;2023-03-01T05:49:14;22.02;;;10.88;;
32445;SDS011;18899;50.748;7.102;2023-03-01T05:51:40;23.02;;;10.90;;
32445;SDS011;18899;50.748;7.102;2023-03-01T05:54:07;25.70;;;11.23;;
32445;SDS011;18899;50.748;7.102;2023-03-01T05:56:34;28.17;;;11.93;;
32445;SDS011;18899;50.748;7.102;2023-03-01T05:59:00;28.58;;;12.32;;
32445;SDS011;18899;50.748;7.102;2023-03-01T06:01:27;27.15;;;11.80;;
32445;SDS011;18899;50.748;7.102;2023-03-01T06:03:52;25.52;;;11.55;;
32445;SDS011;18899;50.748;7.102;2023-03-01T06:06:18;26.45;;;11.65;;
32445;SDS011;18899;50.748;7.102;2023-03-01T06:08:43;26.05;;;12.65;;
32445;SDS011;18899;50.748;7.102;2023-03-01T06:11:09;29.52;;;12.07;;
32445;SDS011;18899;50.748;7.102;2023-03-01T06:13:34;27.67;;;12.10;;
32445;SDS011;18899;50.748;7.102;2023-03-01T06:16:00;27.80;;;12.38;;
32445;SDS011;18899;50.748;7.102;2023-03-01T06:18:25;28.67;;;12.70;;
32445;SDS011;18899;50.748;7.102;2023-03-01T06:20:54;26.38;;;12.18;;
32445;SDS011;18899;50.748;7.102;2023-03-01T06:23:21;25.00;;;12.30;;
32445;SDS011;18899;50.748;7.102;2023-03-01T06:25:47;29.90;;;11.73;;
32445;SDS011;18899;50.748;7.102;2023-03-01T06:28:12;33.45;;;11.93;;
32445;SDS011;18899;50.748;7.102;2023-03-01T06:30:38;26.30;;;12.48;;
32445;SDS011;18899;50.748;7.102;2023-03-01T06:33:03;27.75;;;12.15;;
32445;SDS011;18899;50.748;7.102;2023-03-01T06:35:29;27.38;;;12.82;;
32445;SDS011;18899;50.748;7.102;2023-03-01T06:37:56;29.90;;;12.45;;
32445;SDS011;18899;50.748;7.102;2023-03-01T06:40:23;25.85;;;12.13;;
32445;SDS011;18899;50.748;7.102;2023-03-01T06:42:49;29.63;;;11.88;;
32445;SDS011;18899;50.748;7.102;2023-03-01T06:45:15;30.75;;;13.75;;
32445;SDS011;18899;50.748;7.102;2023-03-01T06:47:42;28.63;;;12.90;;
32445;SDS011;18899;50.748;7.102;2023-03-01T06:50:08;34.72;;;13.23;;
32445;SDS011;18899;50.748;7.102;2023-03-01T06:52:34;24.33;;;11.57;;
32445;SDS011;18899;50.748;7.102;2023-03-01T06:55:01;23.92;;;10.55;;
32445;SDS011;18899;50.748;7.102;2023-03-01T06:57:27;24.55;;;11.05;;
32445;SDS011;18899;50.748;7.102;2023-03-01T06:59:52;25.70;;;11.07;;
32445;SDS011;18899;50.748;7.102;2023-03-01T07:02:18;20.88;;;10.60;;
32445;SDS011;18899;50.748;7.102;2023-03-01T07:04:44;22.92;;;10.73;;
32445;SDS011;18899;50.748;7.102;2023-03-01T07:07:09;24.83;;;10.70;;
32445;SDS011;18899;50.748;7.102;2023-03-01T07:09:35;22.48;;;10.35;;
32445;SDS011;18899;50.748;7.102;2023-03-01T07:12:01;25.20;;;9.98;;
32445;SDS011;18899;50.748;7.102;2023-03-01T07:14:26;20.13;;;10.18;;
32445;SDS011;18899;50.748;7.102;2023-03-01T07:16:52;20.83;;;10.18;;
32445;SDS011;18899;50.748;7.102;2023-03-01T07:19:18;18.92;;;9.95;;
32445;SDS011;18899;50.748;7.102;2023-03-01T07:21:44;17.70;;;9.30;;
32445;SDS011;18899;50.748;7.102;2023-03-01T07:24:10;18.38;;;9.30;;
32445;SDS011;18899;50.748;7.102;2023-03-01T07:26:35;17.60;;;9.13;;
32445;SDS011;18899;50.748;7.102;2023-03-01T07:29:02;18.13;;;9.52;;
32445;SDS011;18899;50.748;7.102;2023-03-01T07:31:29;20.60;;;8.60;;
32445;SDS011;18899;50.748;7.102;2023-03-01T07:33:54;15.80;;;8.18;;
32445;SDS011;18899;50.748;7.102;2023-03-01T07:36:20;22.33;;;9.20;;
32445;SDS011;18899;50.748;7.102;2023-03-01T07:38:46;16.98;;;9.07;;
32445;SDS011;18899;50.748;7.102;2023-03-01T07:41:12;18.92;;;9.20;;
32445;SDS011;18899;50.748;7.102;2023-03-01T07:43:38;17.85;;;8.82;;
32445;SDS011;18899;50.748;7.102;2023-03-01T07:46:03;19.20;;;9.65;;
32445;SDS011;18899;50.748;7.102;2023-03-01T07:48:30;18.10;;;9.23;;
32445;SDS011;18899;50.748;7.102;2023-03-01T07:51:00;19.75;;;10.38;;
32445;SDS011;18899;50.748;7.102;2023-03-01T07:53:26;16.83;;;8.65;;
32445;SDS011;18899;50.748;7.102;2023-03-01T07:56:02;19.75;;;8.85;;
32445;SDS011;18899;50.748;7.102;2023-03-01T07:58:36;16.50;;;8.48;;
32445;SDS011;18899;50.748;7.102;2023-03-01T08:01:07;18.58;;;9.90;;
32445;SDS011;18899;50.748;7.102;2023-03-01T08:03:34;19.20;;;8.82;;
32445;SDS011;18899;50.748;7.102;2023-03-01T08:06:00;18.80;;;9.05;;
32445;SDS011;18899;50.748;7.102;2023-03-01T08:08:29;19.85;;;8.88;;
32445;SDS011;18899;50.748;7.102;2023-03-01T08:10:56;19.58;;;9.15;;
32445;SDS011;18899;50.748;7.102;2023-03-01T08:13:22;22.10;;;8.90;;
32445;SDS011;18899;50.748;7.102;2023-03-01T08:15:48;19.38;;;9.38;;
32445;SDS011;18899;50.748;7.102;2023-03-01T08:18:14;20.85;;;9.68;;
32445;SDS011;18899;50.748;7.102;2023-03-01T08:20:41;72.45;;;10.88;;
32445;SDS011;18899;50.748;7.102;2023-03-01T08:23:06;19.02;;;9.32;;
32445;SDS011;18899;50.748;7.102;2023-03-01T08:25:32;17.98;;;9.65;;
32445;SDS011;18899;50.748;7.102;2023-03-01T08:27:57;18.58;;;9.60;;
32445;SDS011;18899;50.748;7.102;2023-03-01T08:30:23;21.40;;;10.25;;
32445;SDS011;18899;50.748;7.102;2023-03-01T08:32:49;18.73;;;10.02;;
32445;SDS011;18899;50.748;7.102;2023-03-01T08:35:14;17.67;;;9.18;;
32445;SDS011;18899;50.748;7.102;2023-03-01T08:37:40;15.43;;;9.30;;
32445;SDS011;18899;50.748;7.102;2023-03-01T08:40:06;18.98;;;9.43;;
32445;SDS011;18899;50.748;7.102;2023-03-01T08:42:32;19.08;;;9.13;;
32445;SDS011;18899;50.748;7.102;2023-03-01T08:44:58;20.02;;;10.07;;
32445;SDS011;18899;50.748;7.102;2023-03-01T08:47:23;16.67;;;9.93;;
32445;SDS011;18899;50.748;7.102;2023-03-01T08:49:49;21.63;;;10.20;;
32445;SDS011;18899;50.748;7.102;2023-03-01T08:52:15;21.67;;;9.90;;
32445;SDS011;18899;50.748;7.102;2023-03-01T08:54:41;22.67;;;10.35;;
32445;SDS011;18899;50.748;7.102;2023-03-01T08:57:06;20.75;;;9.40;;
32445;SDS011;18899;50.748;7.102;2023-03-01T08:59:32;17.15;;;9.52;;
32445;SDS011;18899;50.748;7.102;2023-03-01T09:02:02;21.92;;;10.20;;
32445;SDS011;18899;50.748;7.102;2023-03-01T09:04:28;18.20;;;9.65;;
32445;SDS011;18899;50.748;7.102;2023-03-01T09:06:54;18.83;;;9.60;;
32445;SDS011;18899;50.748;7.102;2023-03-01T09:09:20;17.05;;;9.73;;
32445;SDS011;18899;50.748;7.102;2023-03-01T09:11:45;20.15;;;9.98;;
32445;SDS011;18899;50.748;7.102;2023-03-01T09:14:12;21.23;;;10.55;;
32445;SDS011;18899;50.748;7.102;2023-03-01T09:16:38;20.08;;;10.38;;
32445;SDS011;18899;50.748;7.102;2023-03-01T09:19:04;17.67;;;10.20;;
32445;SDS011;18899;50.748;7.102;2023-03-01T09:21:30;17.73;;;10.20;;
32445;SDS011;18899;50.748;7.102;2023-03-01T09:23:56;20.63;;;10.77;;
32445;SDS011;18899;50.748;7.102;2023-03-01T09:26:23;27.35;;;11.35;;
32445;SDS011;18899;50.748;7.102;2023-03-01T09:28:50;21.45;;;11.23;;
32445;SDS011;18899;50.748;7.102;2023-03-01T09:31:17;20.50;;;10.45;;
32445;SDS011;18899;50.748;7.102;2023-03-01T09:33:46;21.63;;;10.52;;
32445;SDS011;18899;50.748;7.102;2023-03-01T09:36:14;23.23;;;10.13;;
32445;SDS011;18899;50.748;7.102;2023-03-01T09:38:41;22.67;;;10.68;;
32445;SDS011;18899;50.748;7.102;2023-03-01T09:41:58;20.63;;;10.57;;
32445;SDS011;18899;50.748;7.102;2023-03-01T09:44:27;16.85;;;9.82;;
32445;SDS011;18899;50.748;7.102;2023-03-01T09:47:04;21.30;;;10.23;;
32445;SDS011;18899;50.748;7.102;2023-03-01T09:49:30;17.65;;;10.25;;
32445;SDS011;18899;50.748;7.102;2023-03-01T09:52:06;22.00;;;9.88;;
32445;SDS011;18899;50.748;7.102;2023-03-01T09:54:39;22.13;;;11.02;;
32445;SDS011;18899;50.748;7.102;2023-03-01T09:57:06;16.65;;;9.60;;
32445;SDS011;18899;50.748;7.102;2023-03-01T09:59:53;17.58;;;9.77;;
32445;SDS011;18899;50.748;7.102;2023-03-01T10:07:56;13.70;;;7.32;;
32445;SDS011;18899;50.748;7.102;2023-03-01T10:10:38;13.45;;;7.80;;
32445;SDS011;18899;50.748;7.102;2023-03-01T10:13:10;15.18;;;7.53;;
32445;SDS011;18899;50.748;7.102;2023-03-01T10:15:48;14.20;;;8.05;;
32445;SDS011;18899;50.748;7.102;2023-03-01T10:18:20;14.30;;;7.30;;
32445;SDS011;18899;50.748;7.102;2023-03-01T10:20:53;18.42;;;7.75;;
32445;SDS011;18899;50.748;7.102;2023-03-01T10:23:25;13.93;;;7.65;;
32445;SDS011;18899;50.748;7.102;2023-03-01T10:28:52;15.15;;;7.22;;
32445;SDS011;18899;50.748;7.102;2023-03-01T10:31:48;15.77;;;7.07;;
32445;SDS011;18899;50.748;7.102;2023-03-01T10:34:17;15.40;;;7.53;;
32445;SDS011;18899;50.748;7.102;2023-03-01T10:36:47;15.02;;;7.07;;
32445;SDS011;18899;50.748;7.102;2023-03-01T10:39:17;15.77;;;7.55;;
32445;SDS011;18899;50.748;7.102;2023-03-01T10:41:59;14.27;;;8.20;;
32445;SDS011;18899;50.748;7.102;2023-03-01T10:44:45;14.95;;;7.65;;
32445;SDS011;18899;50.748;7.102;2023-03-01T10:47:14;14.18;;;7.18;;
32445;SDS011;18899;50.748;7.102;2023-03-01T10:49:54;19.10;;;7.45;;
32445;SDS011;18899;50.748;7.102;2023-03-01T10:52:29;17.33;;;8.30;;
32445;SDS011;18899;50.748;7.102;2023-03-01T10:57:46;15.93;;;7.68;;
32445;SDS011;18899;50.748;7.102;2023-03-01T11:02:45;13.27;;;6.95;;
32445;SDS011;18899;50.748;7.102;2023-03-01T11:05:34;18.52;;;7.35;;
32445;SDS011;18899;50.748;7.102;2023-03-01T11:08:01;18.70;;;7.72;;
32445;SDS011;18899;50.748;7.102;2023-03-01T11:10:29;14.32;;;7.47;;
32445;SDS011;18899;50.748;7.102;2023-03-01T11:15:59;13.63;;;6.72;;
32445;SDS011;18899;50.748;7.102;2023-03-01T11:18:26;16.92;;;7.72;;
32445;SDS011;18899;50.748;7.102;2023-03-01T11:20:53;17.08;;;7.75;;
32445;SDS011;18899;50.748;7.102;2023-03-01T11:23:20;15.50;;;8.05;;
32445;SDS011;18899;50.748;7.102;2023-03-01T11:25:48;15.57;;;7.32;;
32445;SDS011;18899;50.748;7.102;2023-03-01T11:28:19;22.58;;;7.90;;
32445;SDS011;18899;50.748;7.102;2023-03-01T11:30:51;15.30;;;7.95;;
32445;SDS011;18899;50.748;7.102;2023-03-01T11:38:53;16.20;;;7.47;;
32445;SDS011;18899;50.748;7.102;2023-03-01T11:41:21;17.73;;;7.65;;
32445;SDS011;18899;50.748;7.102;2023-03-01T11:49:21;21.15;;;7.00;;
32445;SDS011;18899;50.748;7.102;2023-03-01T11:52:14;16.48;;;7.10;;
32445;SDS011;18899;50.748;7.102;2023-03-01T12:00:43;12.10;;;6.20;;
32445;SDS011;18899;50.748;7.102;2023-03-01T12:15:00;17.88;;;7.38;;
32445;SDS011;18899;50.748;7.102;2023-03-01T12:18:16;13.43;;;7.25;;
32445;SDS011;18899;50.748;7.102;2023-03-01T12:20:56;17.23;;;6.75;;
32445;SDS011;18899;50.748;7.102;2023-03-01T12:23:46;16.98;;;7.45;;
32445;SDS011;18899;50.748;7.102;2023-03-01T12:26:57;19.92;;;7.80;;
32445;SDS011;18899;50.748;7.102;2023-03-01T12:37:05;15.18;;;7.10;;
32445;SDS011;18899;50.748;7.102;2023-03-01T12:42:41;14.85;;;7.22;;
32445;SDS011;18899;50.748;7.102;2023-03-01T12:48:24;15.15;;;7.25;;
32445;SDS011;18899;50.748;7.102;2023-03-01T12:50:53;18.95;;;7.15;;
32445;SDS011;18899;50.748;7.102;2023-03-01T12:53:23;16.58;;;6.70;;
32445;SDS011;18899;50.748;7.102;2023-03-01T12:56:09;13.13;;;5.82;;
32445;SDS011;18899;50.748;7.102;2023-03-01T13:04:14;11.65;;;5.43;;
32445;SDS011;18899;50.748;7.102;2023-03-01T13:15:41;16.08;;;5.43;;
32445;SDS011;18899;50.748;7.102;2023-03-01T13:18:02;10.25;;;4.97;;
32445;SDS011;18899;50.748;7.102;2023-03-01T13:20:30;15.30;;;4.82;;
32445;SDS011;18899;50.748;7.102;2023-03-01T13:36:11;16.08;;;5.75;;
32445;SDS011;18899;50.748;7.102;2023-03-01T13:39:04;13.07;;;5.68;;
32445;SDS011;18899;50.748;7.102;2023-03-01T13:41:53;13.27;;;5.45;;
32445;SDS011;18899;50.748;7.102;2023-03-01T13:46:52;10.73;;;6.00;;
32445;SDS011;18899;50.748;7.102;2023-03-01T13:49:23;14.77;;;6.18;;
32445;SDS011;18899;50.748;7.102;2023-03-01T13:51:53;12.60;;;6.10;;
32445;SDS011;18899;50.748;7.102;2023-03-01T13:54:24;10.48;;;5.50;;
32445;SDS011;18899;50.748;7.102;2023-03-01T13:56:55;15.35;;;5.88;;
32445;SDS011;18899;50.748;7.102;2023-03-01T13:59:23;9.00;;;4.93;;
32445;SDS011;18899;50.748;7.102;2023-03-01T14:01:55;9.70;;;5.63;;
32445;SDS011;18899;50.748;7.102;2023-03-01T14:04:26;11.88;;;5.75;;
32445;SDS011;18899;50.748;7.102;2023-03-01T14:10:00;13.57;;;5.55;;
32445;SDS011;18899;50.748;7.102;2023-03-01T14:12:44;9.95;;;5.20;;
32445;SDS011;18899;50.748;7.102;2023-03-01T14:15:46;10.95;;;5.72;;
32445;SDS011;18899;50.748;7.102;2023-03-01T14:18:36;17.15;;;6.30;;
32445;SDS011;18899;50.748;7.102;2023-03-01T14:21:12;9.75;;;5.70;;
32445;SDS011;18899;50.748;7.102;2023-03-01T14:23:39;10.05;;;4.60;;
32445;SDS011;18899;50.748;7.102;2023-03-01T14:26:07;11.85;;;5.00;;
32445;SDS011;18899;50.748;7.102;2023-03-01T14:28:34;9.00;;;4.97;;
32445;SDS011;18899;50.748;7.102;2023-03-01T14:31:02;13.95;;;5.60;;
32445;SDS011;18899;50.748;7.102;2023-03-01T14:33:33;11.65;;;5.22;;
32445;SDS011;18899;50.748;7.102;2023-03-01T14:36:02;10.55;;;4.70;;
32445;SDS011;18899;50.748;7.102;2023-03-01T14:38:31;11.05;;;4.45;;
32445;SDS011;18899;50.748;7.102;2023-03-01T14:41:00;10.20;;;4.70;;
32445;SDS011;18899;50.748;7.102;2023-03-01T14:43:29;10.65;;;4.95;;
32445;SDS011;18899;50.748;7.102;2023-03-01T14:45:56;8.25;;;4.22;;
32445;SDS011;18899;50.748;7.102;2023-03-01T14:48:22;8.95;;;4.82;;
32445;SDS011;18899;50.748;7.102;2023-03-01T14:50:48;9.18;;;4.63;;
32445;SDS011;18899;50.748;7.102;2023-03-01T14:53:16;16.52;;;5.13;;
32445;SDS011;18899;50.748;7.102;2023-03-01T14:55:55;9.77;;;4.78;;
32445;SDS011;18899;50.748;7.102;2023-03-01T14:58:25;9.82;;;4.60;;
32445;SDS011;18899;50.748;7.102;2023-03-01T15:00:58;12.93;;;4.70;;
32445;SDS011;18899;50.748;7.102;2023-03-01T15:03:36;8.18;;;4.55;;
32445;SDS011;18899;50.748;7.102;2023-03-01T15:06:06;11.07;;;4.60;;
32445;SDS011;18899;50.748;7.102;2023-03-01T15:08:33;8.35;;;4.50;;
32445;SDS011;18899;50.748;7.102;2023-03-01T15:11:42;13.43;;;4.40;;
32445;SDS011;18899;50.748;7.102;2023-03-01T15:13:53;16.05;;;6.85;;
32445;SDS011;18899;50.748;7.102;2023-03-01T15:16:20;11.10;;;5.97;;
32445;SDS011;18899;50.748;7.102;2023-03-01T15:21:39;15.82;;;6.00;;
32445;SDS011;18899;50.748;7.102;2023-03-01T15:26:44;13.88;;;6.57;;
32445;SDS011;18899;50.748;7.102;2023-03-01T15:29:19;12.73;;;4.53;;
32445;SDS011;18899;50.748;7.102;2023-03-01T15:31:57;8.07;;;3.90;;
32445;SDS011;18899;50.748;7.102;2023-03-01T15:34:24;7.38;;;3.72;;
32445;SDS011;18899;50.748;7.102;2023-03-01T15:37:02;8.05;;;4.18;;
32445;SDS011;18899;50.748;7.102;2023-03-01T15:42:02;6.03;;;3.65;;
32445;SDS011;18899;50.748;7.102;2023-03-01T15:44:34;7.72;;;4.13;;
32445;SDS011;18899;50.748;7.102;2023-03-01T15:47:01;7.18;;;3.40;;
32445;SDS011;18899;50.748;7.102;2023-03-01T15:49:40;6.57;;;3.30;;
32445;SDS011;18899;50.748;7.102;2023-03-01T15:52:15;20.30;;;3.33;;
32445;SDS011;18899;50.748;7.102;2023-03-01T15:54:53;6.57;;;3.72;;
32445;SDS011;18899;50.748;7.102;2023-03-01T15:57:20;9.20;;;3.95;;
32445;SDS011;18899;50.748;7.102;2023-03-01T15:59:46;7.00;;;3.22;;
32445;SDS011;18899;50.748;7.102;2023-03-01T16:02:11;6.53;;;3.30;;
32445;SDS011;18899;50.748;7.102;2023-03-01T16:04:38;7.40;;;3.75;;
32445;SDS011;18899;50.748;7.102;2023-03-01T16:07:04;7.38;;;3.60;;
32445;SDS011;18899;50.748;7.102;2023-03-01T16:09:30;11.93;;;4.30;;
32445;SDS011;18899;50.748;7.102;2023-03-01T16:11:55;9.40;;;4.78;;
32445;SDS011;18899;50.748;7.102;2023-03-01T16:14:21;8.65;;;5.07;;
32445;SDS011;18899;50.748;7.102;2023-03-01T16:16:47;11.80;;;5.03;;
32445;SDS011;18899;50.748;7.102;2023-03-01T16:19:13;9.82;;;5.32;;
32445;SDS011;18899;50.748;7.102;2023-03-01T16:21:39;13.73;;;5.05;;
32445;SDS011;18899;50.748;7.102;2023-03-01T16:24:04;10.05;;;5.15;;
32445;SDS011;18899;50.748;7.102;2023-03-01T16:26:31;12.55;;;5.20;;
32445;SDS011;18899;50.748;7.102;2023-03-01T16:28:57;10.07;;;4.68;;
32445;SDS011;18899;50.748;7.102;2023-03-01T16:31:23;10.85;;;5.47;;
32445;SDS011;18899;50.748;7.102;2023-03-01T16:33:52;12.25;;;5.13;;